createdAt,value
2016-12-01T00:02:03.522Z,0
2016-12-01T00:06:59.860Z,0
2016-12-01T00:11:57.196Z,0
2016-12-01T00:16:54.208Z,0
2016-12-01T00:21:50.927Z,0
2016-12-01T00:26:47.535Z,0
2016-12-01T00:31:44.955Z,0
2016-12-01T00:36:41.279Z,0
2016-12-01T00:41:37.707Z,0
2016-12-01T00:46:34.088Z,0
2016-12-01T00:51:32.421Z,0
2016-12-01T00:56:29.766Z,0
2016-12-01T01:01:26.158Z,0
2016-12-01T01:06:22.917Z,0
2016-12-01T01:11:19.429Z,0
2016-12-01T01:16:16.001Z,0
2016-12-01T01:21:12.740Z,0
2016-12-01T01:26:09.522Z,0
2016-12-01T01:31:06.197Z,0
2016-12-01T01:36:03.219Z,0
2016-12-01T01:41:00.302Z,0
2016-12-01T01:45:56.597Z,0
2016-12-01T01:50:53.330Z,0
2016-12-01T01:55:49.881Z,0
2016-12-01T02:00:47.663Z,0
2016-12-01T02:05:44.047Z,0
2016-12-01T02:10:41.341Z,0
2016-12-01T02:15:38.064Z,0
2016-12-01T02:20:38.161Z,0
2016-12-01T02:25:33.795Z,0
2016-12-01T02:30:30.682Z,0
2016-12-01T02:35:28.765Z,0
2016-12-01T02:40:24.960Z,0
2016-12-01T02:45:21.425Z,0
2016-12-01T02:50:19.205Z,0
2016-12-01T02:55:16.375Z,0
2016-12-01T03:00:12.928Z,0
2016-12-01T03:05:11.076Z,0
2016-12-01T03:10:08.083Z,0
2016-12-01T03:15:04.730Z,0
2016-12-01T03:20:01.672Z,0
2016-12-01T03:24:58.165Z,0
2016-12-01T03:29:54.708Z,0
2016-12-01T03:34:52.286Z,0
2016-12-01T03:39:49.688Z,0
2016-12-01T03:44:46.148Z,0
2016-12-01T03:49:43.120Z,0
2016-12-01T03:54:39.460Z,0
2016-12-01T03:59:37.159Z,0
2016-12-01T04:04:33.484Z,0
2016-12-01T04:09:30.256Z,0
2016-12-01T04:14:27.831Z,0
2016-12-01T04:19:24.997Z,0
2016-12-01T04:24:21.441Z,0
2016-12-01T04:29:18.872Z,0
2016-12-01T04:34:16.142Z,0
2016-12-01T04:39:14.016Z,0
2016-12-01T04:44:10.499Z,0
2016-12-01T04:49:07.235Z,0
2016-12-01T04:54:03.888Z,0
2016-12-01T04:59:00.308Z,0
2016-12-01T05:03:57.186Z,0
2016-12-01T05:08:53.548Z,0
2016-12-01T05:13:49.973Z,0
2016-12-01T05:18:47.036Z,0
2016-12-01T05:23:43.526Z,0
2016-12-01T05:28:40.727Z,0
2016-12-01T05:33:37.257Z,0
2016-12-01T05:38:34.034Z,0
2016-12-01T05:43:31.008Z,0
2016-12-01T05:48:27.680Z,0
2016-12-01T05:53:24.266Z,0
2016-12-01T05:58:21.034Z,0
2016-12-01T06:03:17.712Z,0
2016-12-01T06:08:13.823Z,0
2016-12-01T06:13:10.402Z,0
2016-12-01T06:18:07.653Z,0
2016-12-01T06:23:04.333Z,0
2016-12-01T06:28:00.447Z,0
2016-12-01T06:32:57.112Z,0
2016-12-01T06:37:53.633Z,0
2016-12-01T06:42:50.135Z,0
2016-12-01T06:47:46.862Z,0
2016-12-01T06:52:43.502Z,4
2016-12-01T06:57:40.270Z,12
2016-12-01T07:02:36.321Z,12
2016-12-01T07:07:32.900Z,24
2016-12-01T07:12:29.341Z,48
2016-12-01T07:17:25.748Z,72
2016-12-01T07:22:22.268Z,96
2016-12-01T07:27:18.365Z,124
2016-12-01T07:32:14.974Z,144
2016-12-01T07:37:11.798Z,180
2016-12-01T07:42:08.266Z,188
2016-12-01T07:47:04.722Z,288
2016-12-01T07:52:01.413Z,228
2016-12-01T07:56:57.904Z,364
2016-12-01T08:01:55.939Z,676
2016-12-01T08:06:52.022Z,628
2016-12-01T08:11:48.673Z,932
2016-12-01T08:16:45.809Z,760
2016-12-01T08:21:42.189Z,680
2016-12-01T08:26:38.643Z,1076
2016-12-01T08:31:35.222Z,696
2016-12-01T08:36:31.950Z,768
2016-12-01T08:41:28.332Z,1096
2016-12-01T08:46:25.936Z,1488
2016-12-01T08:51:22.372Z,1828
2016-12-01T08:56:19.086Z,1948
2016-12-01T09:01:15.777Z,1380
2016-12-01T09:06:12.184Z,1440
2016-12-01T09:11:08.417Z,928
2016-12-01T09:16:04.931Z,880
2016-12-01T09:21:01.246Z,1112
2016-12-01T09:25:57.732Z,1580
2016-12-01T09:30:54.005Z,1600
2016-12-01T09:35:50.454Z,1388
2016-12-01T09:40:47.199Z,1588
2016-12-01T09:45:43.762Z,1704
2016-12-01T09:50:40.122Z,1468
2016-12-01T09:55:37.531Z,1436
2016-12-01T10:00:34.119Z,1544
2016-12-01T10:05:30.763Z,1520
2016-12-01T10:10:29.843Z,1380
2016-12-01T10:15:25.709Z,1888
2016-12-01T10:20:22.645Z,2408
2016-12-01T10:25:19.190Z,2228
2016-12-01T10:30:15.590Z,2352
2016-12-01T10:35:12.570Z,2436
2016-12-01T10:40:09.182Z,2972
2016-12-01T10:45:05.756Z,2236
2016-12-01T10:50:02.208Z,2772
2016-12-01T10:54:58.944Z,3052
2016-12-01T10:59:55.406Z,2684
2016-12-01T11:04:51.845Z,3564
2016-12-01T11:09:48.616Z,3828
2016-12-01T11:14:45.214Z,3740
2016-12-01T11:19:41.730Z,3332
2016-12-01T11:24:38.286Z,4660
2016-12-01T11:29:34.481Z,4308
2016-12-01T11:34:31.315Z,4548
2016-12-01T11:39:27.673Z,4448
2016-12-01T11:44:24.520Z,2384
2016-12-01T11:49:20.793Z,2496
2016-12-01T11:54:17.160Z,3408
2016-12-01T11:59:13.555Z,2872
2016-12-01T12:04:09.942Z,2528
2016-12-01T12:09:06.433Z,2436
2016-12-01T12:14:03.615Z,2444
2016-12-01T12:19:00.841Z,1984
2016-12-01T12:23:57.188Z,2032
2016-12-01T12:28:54.239Z,1444
2016-12-01T12:33:50.720Z,1936
2016-12-01T12:38:47.039Z,1944
2016-12-01T12:43:43.576Z,1728
2016-12-01T12:48:40.295Z,1968
2016-12-01T12:53:36.767Z,1768
2016-12-01T12:58:33.351Z,1672
2016-12-01T13:03:29.998Z,1836
2016-12-01T13:08:26.484Z,2696
2016-12-01T13:13:23.216Z,2748
2016-12-01T13:18:20.235Z,2040
2016-12-01T13:23:16.722Z,3080
2016-12-01T13:28:13.375Z,2204
2016-12-01T13:33:10.138Z,1988
2016-12-01T13:38:07.524Z,1336
2016-12-01T13:43:03.919Z,2244
2016-12-01T13:48:00.622Z,1676
2016-12-01T13:52:58.558Z,1220
2016-12-01T13:57:54.828Z,1044
2016-12-01T14:02:50.946Z,1608
2016-12-01T14:07:47.873Z,1124
2016-12-01T14:12:44.374Z,952
2016-12-01T14:22:44.511Z,1104
2016-12-01T14:27:40.918Z,880
2016-12-01T14:32:37.456Z,752
2016-12-01T14:37:33.800Z,512
2016-12-01T14:42:30.518Z,532
2016-12-01T14:47:29.028Z,376
2016-12-01T14:52:25.484Z,436
2016-12-01T14:57:21.640Z,212
2016-12-01T15:02:18.578Z,152
2016-12-01T15:07:14.989Z,128
2016-12-01T15:12:11.559Z,124
2016-12-01T15:17:08.146Z,60
2016-12-01T15:22:04.858Z,56
2016-12-01T15:27:01.308Z,24
2016-12-01T15:31:59.574Z,12
2016-12-01T15:36:58.578Z,16
2016-12-01T15:41:54.898Z,8
2016-12-01T15:46:52.046Z,4
2016-12-01T15:51:48.641Z,4
2016-12-01T15:56:46.603Z,0
2016-12-01T16:01:43.208Z,0
2016-12-01T16:06:39.737Z,0
2016-12-01T16:11:44.182Z,0
2016-12-01T16:16:40.328Z,0
2016-12-01T16:21:37.801Z,0
2016-12-01T16:26:33.948Z,0
2016-12-01T16:31:30.519Z,0
2016-12-01T16:36:27.552Z,0
2016-12-01T16:41:23.699Z,0
2016-12-01T16:46:20.065Z,0
2016-12-01T16:51:18.450Z,0
2016-12-01T16:56:14.907Z,0
2016-12-01T17:01:11.184Z,0
2016-12-01T17:06:07.834Z,0
2016-12-01T17:11:06.783Z,0
2016-12-01T17:16:02.636Z,0
2016-12-01T17:20:58.933Z,0
2016-12-01T17:25:55.547Z,0
2016-12-01T17:30:52.197Z,0
2016-12-01T17:35:48.698Z,0
2016-12-01T17:40:45.318Z,0
2016-12-01T17:45:41.761Z,0
2016-12-01T17:50:38.314Z,0
2016-12-01T17:55:34.996Z,0
2016-12-01T18:00:33.812Z,0
2016-12-01T18:05:31.109Z,0
2016-12-01T18:10:27.013Z,0
2016-12-01T18:15:23.576Z,0
2016-12-01T18:20:20.314Z,0
2016-12-01T18:25:17.434Z,0
2016-12-01T18:30:13.895Z,0
2016-12-01T18:35:10.606Z,0
2016-12-01T18:40:06.706Z,0
2016-12-01T18:45:03.863Z,0
2016-12-01T18:50:00.283Z,0
2016-12-01T18:54:56.845Z,0
2016-12-01T18:59:53.759Z,0
2016-12-01T19:04:50.105Z,0
2016-12-01T19:09:46.624Z,0
2016-12-01T19:14:42.854Z,0
2016-12-01T19:19:39.221Z,0
2016-12-01T19:24:35.343Z,0
2016-12-01T19:29:31.793Z,0
2016-12-01T19:34:28.779Z,0
2016-12-01T19:39:26.154Z,0
2016-12-01T19:44:22.492Z,0
2016-12-01T19:49:20.564Z,0
2016-12-01T19:54:17.080Z,0
2016-12-01T19:59:13.214Z,0
2016-12-01T20:04:09.763Z,0
2016-12-01T20:09:09.312Z,0
2016-12-01T20:14:05.406Z,0
2016-12-01T20:19:04.413Z,0
2016-12-01T20:24:00.355Z,0
2016-12-01T20:28:57.027Z,0
2016-12-01T20:33:53.366Z,0
2016-12-01T20:38:49.950Z,0
2016-12-01T20:43:46.816Z,0
2016-12-01T20:48:43.382Z,0
2016-12-01T20:53:40.131Z,0
2016-12-01T20:58:36.688Z,0
2016-12-01T21:03:34.787Z,0
2016-12-01T21:08:30.931Z,0
2016-12-01T21:13:27.256Z,0
2016-12-01T21:18:24.053Z,0
2016-12-01T21:23:20.493Z,0
2016-12-01T21:28:18.718Z,0
2016-12-01T21:33:14.554Z,0
2016-12-01T21:38:11.148Z,0
2016-12-01T21:43:08.262Z,0
2016-12-01T21:48:05.279Z,0
2016-12-01T21:53:01.554Z,0
2016-12-01T21:58:00.804Z,0
2016-12-01T22:02:56.846Z,0
2016-12-01T22:07:53.105Z,0
2016-12-01T22:12:49.800Z,0
2016-12-01T22:17:46.375Z,0
2016-12-01T22:22:42.997Z,0
2016-12-01T22:27:39.409Z,0
2016-12-01T22:32:36.663Z,0
2016-12-01T22:37:32.948Z,0
2016-12-01T22:42:30.163Z,0
2016-12-01T22:47:26.536Z,0
2016-12-01T22:52:23.120Z,0
2016-12-01T22:57:19.594Z,0
2016-12-01T23:02:16.139Z,0
2016-12-01T23:07:12.608Z,0
2016-12-01T23:12:09.331Z,0
2016-12-01T23:17:05.942Z,0
2016-12-01T23:22:05.103Z,0
2016-12-01T23:27:01.144Z,0
2016-12-01T23:31:59.060Z,0
2016-12-01T23:36:55.788Z,0
2016-12-01T23:41:52.645Z,0
2016-12-01T23:46:48.986Z,0
2016-12-01T23:51:45.547Z,0
2016-12-01T23:56:42.489Z,0
